Terminal Aerodrome Forecast
Issued by NWS Goodland, KS

Home | Current Version | Previous Version | Text Only | Print | Product List | Glossary On
Versions: 1 2 3 4 5 6 7 8 9 10 11 12 13 14 15 16 17
000
FTUS43 KGLD 271700
TAFGLD
TAF
KGLD 271720Z 2718/2818 08012KT P6SM SCT200
     FM272100 13005KT P6SM FEW070 SCT200
     FM280300 15006KT P6SM BKN200=

USA.gov is the U.S. government's official web portal to all federal, state and local government web resources and services.